sensor_id;sensor_type;location;lat;lon;timestamp;P1;durP1;ratioP1;P2;durP2;ratioP2
32727;SDS011;55292;51.844;19.246;2022-07-18T00:01:05;13.40;;;8.75;;
32727;SDS011;55292;51.844;19.246;2022-07-18T00:06:08;10.73;;;7.78;;
32727;SDS011;55292;51.844;19.246;2022-07-18T00:11:10;13.85;;;9.80;;
32727;SDS011;55292;51.844;19.246;2022-07-18T00:16:13;21.48;;;10.70;;
32727;SDS011;55292;51.844;19.246;2022-07-18T00:21:17;13.73;;;8.93;;
32727;SDS011;55292;51.844;19.246;2022-07-18T00:26:19;11.68;;;8.18;;
32727;SDS011;55292;51.844;19.246;2022-07-18T00:31:22;14.73;;;9.75;;
32727;SDS011;55292;51.844;19.246;2022-07-18T00:36:25;14.15;;;9.32;;
32727;SDS011;55292;51.844;19.246;2022-07-18T00:41:28;16.67;;;8.98;;
32727;SDS011;55292;51.844;19.246;2022-07-18T00:46:31;20.83;;;10.40;;
32727;SDS011;55292;51.844;19.246;2022-07-18T00:51:34;16.90;;;9.27;;
32727;SDS011;55292;51.844;19.246;2022-07-18T00:56:40;16.17;;;9.65;;
32727;SDS011;55292;51.844;19.246;2022-07-18T01:01:43;14.88;;;9.70;;
32727;SDS011;55292;51.844;19.246;2022-07-18T01:06:49;20.17;;;11.48;;
32727;SDS011;55292;51.844;19.246;2022-07-18T01:11:53;18.70;;;11.20;;
32727;SDS011;55292;51.844;19.246;2022-07-18T01:16:57;21.92;;;10.77;;
32727;SDS011;55292;51.844;19.246;2022-07-18T01:22:00;15.90;;;8.68;;
32727;SDS011;55292;51.844;19.246;2022-07-18T01:27:02;18.40;;;10.60;;
32727;SDS011;55292;51.844;19.246;2022-07-18T01:32:06;17.13;;;10.93;;
32727;SDS011;55292;51.844;19.246;2022-07-18T01:37:10;19.92;;;9.75;;
32727;SDS011;55292;51.844;19.246;2022-07-18T01:42:12;16.23;;;9.80;;
32727;SDS011;55292;51.844;19.246;2022-07-18T01:47:16;11.50;;;8.02;;
32727;SDS011;55292;51.844;19.246;2022-07-18T01:52:19;14.20;;;7.75;;
32727;SDS011;55292;51.844;19.246;2022-07-18T01:57:21;14.80;;;9.00;;
32727;SDS011;55292;51.844;19.246;2022-07-18T02:02:25;15.43;;;8.70;;
32727;SDS011;55292;51.844;19.246;2022-07-18T02:07:32;9.07;;;6.68;;
32727;SDS011;55292;51.844;19.246;2022-07-18T02:12:38;14.02;;;8.80;;
32727;SDS011;55292;51.844;19.246;2022-07-18T02:17:41;15.93;;;9.57;;
32727;SDS011;55292;51.844;19.246;2022-07-18T02:22:44;13.80;;;9.27;;
32727;SDS011;55292;51.844;19.246;2022-07-18T02:27:47;15.48;;;9.48;;
32727;SDS011;55292;51.844;19.246;2022-07-18T02:32:50;14.48;;;9.73;;
32727;SDS011;55292;51.844;19.246;2022-07-18T02:37:53;19.15;;;12.20;;
32727;SDS011;55292;51.844;19.246;2022-07-18T02:42:56;15.82;;;9.20;;
32727;SDS011;55292;51.844;19.246;2022-07-18T02:47:58;13.23;;;9.40;;
32727;SDS011;55292;51.844;19.246;2022-07-18T02:53:01;18.60;;;11.27;;
32727;SDS011;55292;51.844;19.246;2022-07-18T02:58:03;23.20;;;13.63;;
32727;SDS011;55292;51.844;19.246;2022-07-18T03:03:06;12.55;;;8.90;;
32727;SDS011;55292;51.844;19.246;2022-07-18T03:08:09;28.70;;;13.30;;
32727;SDS011;55292;51.844;19.246;2022-07-18T03:13:12;15.52;;;10.32;;
32727;SDS011;55292;51.844;19.246;2022-07-18T03:18:15;16.42;;;8.73;;
32727;SDS011;55292;51.844;19.246;2022-07-18T03:23:19;17.83;;;10.23;;
32727;SDS011;55292;51.844;19.246;2022-07-18T03:28:22;13.10;;;7.97;;
32727;SDS011;55292;51.844;19.246;2022-07-18T03:33:25;12.80;;;7.05;;
32727;SDS011;55292;51.844;19.246;2022-07-18T03:38:28;10.00;;;6.25;;
32727;SDS011;55292;51.844;19.246;2022-07-18T03:43:30;6.68;;;5.90;;
32727;SDS011;55292;51.844;19.246;2022-07-18T03:48:34;10.63;;;5.93;;
32727;SDS011;55292;51.844;19.246;2022-07-18T03:53:37;9.85;;;5.32;;
32727;SDS011;55292;51.844;19.246;2022-07-18T03:58:39;10.52;;;4.72;;
32727;SDS011;55292;51.844;19.246;2022-07-18T04:03:42;8.52;;;4.88;;
32727;SDS011;55292;51.844;19.246;2022-07-18T04:08:45;8.40;;;5.00;;
32727;SDS011;55292;51.844;19.246;2022-07-18T04:13:48;9.60;;;4.82;;
32727;SDS011;55292;51.844;19.246;2022-07-18T04:18:50;6.70;;;3.90;;
32727;SDS011;55292;51.844;19.246;2022-07-18T04:23:53;5.10;;;4.30;;
32727;SDS011;55292;51.844;19.246;2022-07-18T04:28:56;6.18;;;3.97;;
32727;SDS011;55292;51.844;19.246;2022-07-18T04:33:58;25.27;;;4.72;;
32727;SDS011;55292;51.844;19.246;2022-07-18T04:39:01;11.05;;;4.60;;
32727;SDS011;55292;51.844;19.246;2022-07-18T04:44:04;10.68;;;4.38;;
32727;SDS011;55292;51.844;19.246;2022-07-18T04:49:07;13.50;;;4.80;;
32727;SDS011;55292;51.844;19.246;2022-07-18T04:54:09;9.57;;;4.20;;
32727;SDS011;55292;51.844;19.246;2022-07-18T04:59:14;12.52;;;4.03;;
32727;SDS011;55292;51.844;19.246;2022-07-18T05:04:16;5.68;;;3.65;;
32727;SDS011;55292;51.844;19.246;2022-07-18T05:09:20;5.35;;;3.72;;
32727;SDS011;55292;51.844;19.246;2022-07-18T05:14:23;9.40;;;3.58;;
32727;SDS011;55292;51.844;19.246;2022-07-18T05:19:25;7.68;;;4.00;;
32727;SDS011;55292;51.844;19.246;2022-07-18T05:24:28;10.20;;;3.85;;
32727;SDS011;55292;51.844;19.246;2022-07-18T05:29:31;4.25;;;2.97;;
32727;SDS011;55292;51.844;19.246;2022-07-18T05:34:33;5.93;;;3.38;;
32727;SDS011;55292;51.844;19.246;2022-07-18T05:39:37;8.23;;;3.28;;
32727;SDS011;55292;51.844;19.246;2022-07-18T05:44:39;5.57;;;3.10;;
32727;SDS011;55292;51.844;19.246;2022-07-18T05:49:42;5.97;;;2.92;;
32727;SDS011;55292;51.844;19.246;2022-07-18T05:54:45;5.10;;;2.72;;
32727;SDS011;55292;51.844;19.246;2022-07-18T05:59:47;4.70;;;3.20;;
32727;SDS011;55292;51.844;19.246;2022-07-18T06:04:50;8.25;;;3.53;;
32727;SDS011;55292;51.844;19.246;2022-07-18T06:10:12;5.25;;;3.15;;
32727;SDS011;55292;51.844;19.246;2022-07-18T06:15:15;10.52;;;3.08;;
32727;SDS011;55292;51.844;19.246;2022-07-18T06:20:18;13.23;;;3.13;;
32727;SDS011;55292;51.844;19.246;2022-07-18T06:25:21;4.50;;;2.47;;
32727;SDS011;55292;51.844;19.246;2022-07-18T06:30:24;4.32;;;2.63;;
32727;SDS011;55292;51.844;19.246;2022-07-18T06:35:27;5.90;;;2.90;;
32727;SDS011;55292;51.844;19.246;2022-07-18T06:40:29;3.17;;;2.55;;
32727;SDS011;55292;51.844;19.246;2022-07-18T06:45:33;6.78;;;2.80;;
32727;SDS011;55292;51.844;19.246;2022-07-18T06:50:35;8.95;;;2.95;;
32727;SDS011;55292;51.844;19.246;2022-07-18T06:55:38;6.43;;;2.42;;
32727;SDS011;55292;51.844;19.246;2022-07-18T07:00:41;3.80;;;2.60;;
32727;SDS011;55292;51.844;19.246;2022-07-18T07:05:43;11.07;;;2.97;;
32727;SDS011;55292;51.844;19.246;2022-07-18T07:10:46;3.92;;;2.35;;
32727;SDS011;55292;51.844;19.246;2022-07-18T07:15:49;3.38;;;2.20;;
32727;SDS011;55292;51.844;19.246;2022-07-18T07:20:51;7.25;;;2.20;;
32727;SDS011;55292;51.844;19.246;2022-07-18T07:25:54;4.90;;;2.30;;
32727;SDS011;55292;51.844;19.246;2022-07-18T07:30:57;8.38;;;2.45;;
32727;SDS011;55292;51.844;19.246;2022-07-18T07:36:00;13.55;;;2.35;;
32727;SDS011;55292;51.844;19.246;2022-07-18T07:41:03;3.15;;;1.88;;
32727;SDS011;55292;51.844;19.246;2022-07-18T07:46:05;4.57;;;2.60;;
32727;SDS011;55292;51.844;19.246;2022-07-18T07:51:08;2.60;;;1.80;;
32727;SDS011;55292;51.844;19.246;2022-07-18T07:56:11;2.33;;;1.60;;
32727;SDS011;55292;51.844;19.246;2022-07-18T08:01:14;2.70;;;1.83;;
32727;SDS011;55292;51.844;19.246;2022-07-18T08:06:19;5.00;;;1.80;;
32727;SDS011;55292;51.844;19.246;2022-07-18T08:11:22;12.05;;;2.22;;
32727;SDS011;55292;51.844;19.246;2022-07-18T08:16:25;18.02;;;2.97;;
32727;SDS011;55292;51.844;19.246;2022-07-18T08:21:30;5.03;;;1.90;;
32727;SDS011;55292;51.844;19.246;2022-07-18T08:26:33;5.15;;;2.00;;
32727;SDS011;55292;51.844;19.246;2022-07-18T08:31:37;4.00;;;1.80;;
32727;SDS011;55292;51.844;19.246;2022-07-18T08:36:39;4.10;;;2.20;;
32727;SDS011;55292;51.844;19.246;2022-07-18T08:41:43;2.58;;;1.70;;
32727;SDS011;55292;51.844;19.246;2022-07-18T08:46:50;1.80;;;1.60;;
32727;SDS011;55292;51.844;19.246;2022-07-18T08:51:53;2.35;;;1.80;;
32727;SDS011;55292;51.844;19.246;2022-07-18T08:56:56;8.35;;;1.92;;
32727;SDS011;55292;51.844;19.246;2022-07-18T09:01:59;1.88;;;1.65;;
32727;SDS011;55292;51.844;19.246;2022-07-18T09:07:01;3.05;;;1.75;;
32727;SDS011;55292;51.844;19.246;2022-07-18T09:12:06;5.53;;;2.00;;
32727;SDS011;55292;51.844;19.246;2022-07-18T09:17:21;3.05;;;1.67;;
32727;SDS011;55292;51.844;19.246;2022-07-18T09:22:28;3.55;;;1.83;;
32727;SDS011;55292;51.844;19.246;2022-07-18T09:27:39;2.70;;;1.55;;
32727;SDS011;55292;51.844;19.246;2022-07-18T09:32:53;2.53;;;1.90;;
32727;SDS011;55292;51.844;19.246;2022-07-18T09:38:08;4.63;;;1.75;;
32727;SDS011;55292;51.844;19.246;2022-07-18T09:43:14;2.78;;;2.05;;
32727;SDS011;55292;51.844;19.246;2022-07-18T09:48:25;12.45;;;2.53;;
32727;SDS011;55292;51.844;19.246;2022-07-18T09:53:35;5.00;;;2.15;;
32727;SDS011;55292;51.844;19.246;2022-07-18T09:58:51;4.95;;;2.00;;
32727;SDS011;55292;51.844;19.246;2022-07-18T10:04:02;3.15;;;1.63;;
32727;SDS011;55292;51.844;19.246;2022-07-18T10:09:05;2.58;;;1.95;;
32727;SDS011;55292;51.844;19.246;2022-07-18T10:14:08;2.13;;;1.60;;
32727;SDS011;55292;51.844;19.246;2022-07-18T10:19:12;3.38;;;1.80;;
32727;SDS011;55292;51.844;19.246;2022-07-18T10:24:18;2.83;;;1.50;;
32727;SDS011;55292;51.844;19.246;2022-07-18T10:29:22;3.92;;;1.80;;
32727;SDS011;55292;51.844;19.246;2022-07-18T10:34:28;3.05;;;1.90;;
32727;SDS011;55292;51.844;19.246;2022-07-18T10:39:42;3.22;;;2.08;;
32727;SDS011;55292;51.844;19.246;2022-07-18T10:44:47;4.20;;;1.88;;
32727;SDS011;55292;51.844;19.246;2022-07-18T11:20:57;4.90;;;1.73;;
32727;SDS011;55292;51.844;19.246;2022-07-18T11:26:00;2.00;;;1.80;;
32727;SDS011;55292;51.844;19.246;2022-07-18T11:31:05;3.55;;;2.00;;
32727;SDS011;55292;51.844;19.246;2022-07-18T11:36:10;2.58;;;1.77;;
32727;SDS011;55292;51.844;19.246;2022-07-18T11:41:14;3.30;;;1.80;;
32727;SDS011;55292;51.844;19.246;2022-07-18T11:46:17;3.25;;;2.15;;
32727;SDS011;55292;51.844;19.246;2022-07-18T11:51:22;4.82;;;1.90;;
32727;SDS011;55292;51.844;19.246;2022-07-18T11:56:25;2.95;;;1.90;;
32727;SDS011;55292;51.844;19.246;2022-07-18T12:01:31;2.30;;;1.92;;
32727;SDS011;55292;51.844;19.246;2022-07-18T12:06:35;3.55;;;1.98;;
32727;SDS011;55292;51.844;19.246;2022-07-18T12:11:38;2.58;;;1.98;;
32727;SDS011;55292;51.844;19.246;2022-07-18T12:17:01;2.33;;;1.90;;
32727;SDS011;55292;51.844;19.246;2022-07-18T12:32:25;3.40;;;2.10;;
32727;SDS011;55292;51.844;19.246;2022-07-18T12:37:28;3.38;;;2.05;;
32727;SDS011;55292;51.844;19.246;2022-07-18T12:47:36;3.05;;;1.73;;
32727;SDS011;55292;51.844;19.246;2022-07-18T12:52:39;25.10;;;3.63;;
32727;SDS011;55292;51.844;19.246;2022-07-18T12:57:42;4.95;;;2.13;;
32727;SDS011;55292;51.844;19.246;2022-07-18T13:02:45;3.95;;;2.17;;
32727;SDS011;55292;51.844;19.246;2022-07-18T13:07:48;3.28;;;1.70;;
32727;SDS011;55292;51.844;19.246;2022-07-18T13:12:51;3.30;;;1.90;;
32727;SDS011;55292;51.844;19.246;2022-07-18T13:17:54;4.00;;;1.67;;
32727;SDS011;55292;51.844;19.246;2022-07-18T13:22:57;2.42;;;1.60;;
32727;SDS011;55292;51.844;19.246;2022-07-18T13:28:03;2.83;;;1.80;;
32727;SDS011;55292;51.844;19.246;2022-07-18T13:33:06;2.90;;;1.80;;
32727;SDS011;55292;51.844;19.246;2022-07-18T13:38:09;4.43;;;2.30;;
32727;SDS011;55292;51.844;19.246;2022-07-18T13:43:11;2.60;;;1.70;;
32727;SDS011;55292;51.844;19.246;2022-07-18T13:48:14;2.80;;;1.55;;
32727;SDS011;55292;51.844;19.246;2022-07-18T13:53:16;3.45;;;1.88;;
32727;SDS011;55292;51.844;19.246;2022-07-18T13:58:19;2.25;;;1.45;;
32727;SDS011;55292;51.844;19.246;2022-07-18T14:03:25;3.60;;;1.58;;
32727;SDS011;55292;51.844;19.246;2022-07-18T14:08:28;4.03;;;1.67;;
32727;SDS011;55292;51.844;19.246;2022-07-18T14:13:31;3.05;;;1.90;;
32727;SDS011;55292;51.844;19.246;2022-07-18T14:18:33;3.33;;;2.33;;
32727;SDS011;55292;51.844;19.246;2022-07-18T14:23:36;4.10;;;1.77;;
32727;SDS011;55292;51.844;19.246;2022-07-18T14:28:39;16.23;;;2.50;;
32727;SDS011;55292;51.844;19.246;2022-07-18T14:33:41;2.45;;;1.85;;
32727;SDS011;55292;51.844;19.246;2022-07-18T14:38:44;2.25;;;1.67;;
32727;SDS011;55292;51.844;19.246;2022-07-18T14:43:47;3.88;;;2.05;;
32727;SDS011;55292;51.844;19.246;2022-07-18T14:48:50;3.10;;;2.50;;
32727;SDS011;55292;51.844;19.246;2022-07-18T14:53:53;3.08;;;2.78;;
32727;SDS011;55292;51.844;19.246;2022-07-18T14:58:56;2.25;;;1.60;;
32727;SDS011;55292;51.844;19.246;2022-07-18T15:03:59;14.48;;;10.02;;
32727;SDS011;55292;51.844;19.246;2022-07-18T15:09:08;11.13;;;9.38;;
32727;SDS011;55292;51.844;19.246;2022-07-18T15:14:11;5.25;;;2.80;;
32727;SDS011;55292;51.844;19.246;2022-07-18T15:19:14;2.40;;;1.88;;
32727;SDS011;55292;51.844;19.246;2022-07-18T15:24:16;2.28;;;1.92;;
32727;SDS011;55292;51.844;19.246;2022-07-18T15:29:19;7.30;;;2.42;;
32727;SDS011;55292;51.844;19.246;2022-07-18T15:34:22;8.23;;;2.38;;
32727;SDS011;55292;51.844;19.246;2022-07-18T15:39:25;7.22;;;2.30;;
32727;SDS011;55292;51.844;19.246;2022-07-18T15:44:28;3.67;;;2.28;;
32727;SDS011;55292;51.844;19.246;2022-07-18T15:49:32;4.85;;;3.30;;
32727;SDS011;55292;51.844;19.246;2022-07-18T15:54:36;5.13;;;2.90;;
32727;SDS011;55292;51.844;19.246;2022-07-18T15:59:39;8.40;;;3.08;;
32727;SDS011;55292;51.844;19.246;2022-07-18T16:04:41;5.43;;;2.75;;
32727;SDS011;55292;51.844;19.246;2022-07-18T16:09:44;3.47;;;2.30;;
32727;SDS011;55292;51.844;19.246;2022-07-18T16:14:46;4.63;;;2.83;;
32727;SDS011;55292;51.844;19.246;2022-07-18T16:19:49;4.80;;;3.95;;
32727;SDS011;55292;51.844;19.246;2022-07-18T16:24:51;9.57;;;2.67;;
32727;SDS011;55292;51.844;19.246;2022-07-18T16:29:54;4.72;;;2.38;;
32727;SDS011;55292;51.844;19.246;2022-07-18T16:34:57;5.47;;;2.22;;
32727;SDS011;55292;51.844;19.246;2022-07-18T16:40:01;6.25;;;3.67;;
32727;SDS011;55292;51.844;19.246;2022-07-18T16:45:05;6.85;;;4.47;;
32727;SDS011;55292;51.844;19.246;2022-07-18T16:50:10;6.63;;;2.47;;
32727;SDS011;55292;51.844;19.246;2022-07-18T16:55:13;5.97;;;2.67;;
32727;SDS011;55292;51.844;19.246;2022-07-18T17:00:16;3.60;;;1.88;;
32727;SDS011;55292;51.844;19.246;2022-07-18T17:05:20;6.03;;;3.40;;
32727;SDS011;55292;51.844;19.246;2022-07-18T17:10:22;5.80;;;4.78;;
32727;SDS011;55292;51.844;19.246;2022-07-18T17:15:25;5.35;;;2.83;;
32727;SDS011;55292;51.844;19.246;2022-07-18T17:20:29;3.95;;;2.17;;
32727;SDS011;55292;51.844;19.246;2022-07-18T17:25:32;6.28;;;2.90;;
32727;SDS011;55292;51.844;19.246;2022-07-18T17:30:39;4.95;;;3.00;;
32727;SDS011;55292;51.844;19.246;2022-07-18T17:35:43;11.85;;;3.22;;
32727;SDS011;55292;51.844;19.246;2022-07-18T17:40:46;12.38;;;2.70;;
32727;SDS011;55292;51.844;19.246;2022-07-18T17:45:50;7.43;;;2.40;;
32727;SDS011;55292;51.844;19.246;2022-07-18T17:50:55;7.90;;;2.47;;
32727;SDS011;55292;51.844;19.246;2022-07-18T17:55:58;3.67;;;1.95;;
32727;SDS011;55292;51.844;19.246;2022-07-18T18:01:01;2.35;;;1.90;;
32727;SDS011;55292;51.844;19.246;2022-07-18T18:06:04;2.60;;;2.38;;
32727;SDS011;55292;51.844;19.246;2022-07-18T18:11:06;7.05;;;2.17;;
32727;SDS011;55292;51.844;19.246;2022-07-18T18:16:09;10.82;;;3.17;;
32727;SDS011;55292;51.844;19.246;2022-07-18T18:21:12;9.60;;;3.00;;
32727;SDS011;55292;51.844;19.246;2022-07-18T18:26:15;7.60;;;2.63;;
32727;SDS011;55292;51.844;19.246;2022-07-18T18:31:18;10.45;;;3.47;;
32727;SDS011;55292;51.844;19.246;2022-07-18T18:36:20;11.43;;;3.00;;
32727;SDS011;55292;51.844;19.246;2022-07-18T18:41:43;10.13;;;2.85;;
32727;SDS011;55292;51.844;19.246;2022-07-18T18:46:46;4.07;;;2.80;;
32727;SDS011;55292;51.844;19.246;2022-07-18T18:51:49;5.25;;;2.50;;
32727;SDS011;55292;51.844;19.246;2022-07-18T18:56:53;4.65;;;2.80;;
32727;SDS011;55292;51.844;19.246;2022-07-18T19:01:57;6.88;;;2.88;;
32727;SDS011;55292;51.844;19.246;2022-07-18T19:06:59;3.53;;;2.40;;
32727;SDS011;55292;51.844;19.246;2022-07-18T19:12:04;3.83;;;2.50;;
32727;SDS011;55292;51.844;19.246;2022-07-18T19:17:06;6.22;;;2.70;;
32727;SDS011;55292;51.844;19.246;2022-07-18T19:22:09;3.45;;;3.05;;
32727;SDS011;55292;51.844;19.246;2022-07-18T19:27:20;7.82;;;3.38;;
32727;SDS011;55292;51.844;19.246;2022-07-18T19:32:26;9.98;;;5.03;;
32727;SDS011;55292;51.844;19.246;2022-07-18T19:37:29;9.75;;;4.30;;
32727;SDS011;55292;51.844;19.246;2022-07-18T19:42:31;7.30;;;3.97;;
32727;SDS011;55292;51.844;19.246;2022-07-18T19:47:34;6.22;;;3.45;;
32727;SDS011;55292;51.844;19.246;2022-07-18T19:52:37;10.73;;;3.80;;
32727;SDS011;55292;51.844;19.246;2022-07-18T19:57:39;4.53;;;3.33;;
32727;SDS011;55292;51.844;19.246;2022-07-18T20:02:42;7.75;;;3.55;;
32727;SDS011;55292;51.844;19.246;2022-07-18T20:07:46;9.05;;;3.83;;
32727;SDS011;55292;51.844;19.246;2022-07-18T20:12:49;7.32;;;3.50;;
32727;SDS011;55292;51.844;19.246;2022-07-18T20:17:51;9.07;;;4.00;;
32727;SDS011;55292;51.844;19.246;2022-07-18T20:22:55;8.95;;;3.33;;
32727;SDS011;55292;51.844;19.246;2022-07-18T20:27:58;9.60;;;4.30;;
32727;SDS011;55292;51.844;19.246;2022-07-18T20:33:02;9.07;;;3.30;;
32727;SDS011;55292;51.844;19.246;2022-07-18T20:38:06;11.38;;;4.43;;
32727;SDS011;55292;51.844;19.246;2022-07-18T20:43:10;9.82;;;4.53;;
32727;SDS011;55292;51.844;19.246;2022-07-18T20:48:12;6.93;;;3.45;;
32727;SDS011;55292;51.844;19.246;2022-07-18T20:53:15;8.80;;;4.60;;
32727;SDS011;55292;51.844;19.246;2022-07-18T20:58:18;7.53;;;4.68;;
32727;SDS011;55292;51.844;19.246;2022-07-18T21:03:20;11.77;;;4.60;;
32727;SDS011;55292;51.844;19.246;2022-07-18T21:08:23;6.95;;;4.55;;
32727;SDS011;55292;51.844;19.246;2022-07-18T21:13:26;8.55;;;3.90;;
32727;SDS011;55292;51.844;19.246;2022-07-18T21:18:29;8.77;;;4.25;;
32727;SDS011;55292;51.844;19.246;2022-07-18T21:23:32;14.50;;;5.07;;
32727;SDS011;55292;51.844;19.246;2022-07-18T21:28:35;31.05;;;6.15;;
32727;SDS011;55292;51.844;19.246;2022-07-18T21:33:38;18.50;;;5.40;;
32727;SDS011;55292;51.844;19.246;2022-07-18T21:38:41;13.95;;;5.22;;
32727;SDS011;55292;51.844;19.246;2022-07-18T21:43:43;14.77;;;4.97;;
32727;SDS011;55292;51.844;19.246;2022-07-18T21:48:46;11.75;;;4.50;;
32727;SDS011;55292;51.844;19.246;2022-07-18T21:53:48;11.88;;;6.20;;
32727;SDS011;55292;51.844;19.246;2022-07-18T21:58:53;9.60;;;4.40;;
32727;SDS011;55292;51.844;19.246;2022-07-18T22:03:55;10.98;;;4.50;;
32727;SDS011;55292;51.844;19.246;2022-07-18T22:08:58;11.05;;;5.68;;
32727;SDS011;55292;51.844;19.246;2022-07-18T22:14:00;11.25;;;5.28;;
32727;SDS011;55292;51.844;19.246;2022-07-18T22:19:05;13.23;;;5.10;;
32727;SDS011;55292;51.844;19.246;2022-07-18T22:24:09;10.43;;;5.25;;
32727;SDS011;55292;51.844;19.246;2022-07-18T22:29:12;9.05;;;5.53;;
32727;SDS011;55292;51.844;19.246;2022-07-18T22:34:15;9.13;;;5.28;;
32727;SDS011;55292;51.844;19.246;2022-07-18T22:39:17;11.65;;;5.63;;
32727;SDS011;55292;51.844;19.246;2022-07-18T22:44:20;9.25;;;6.00;;
32727;SDS011;55292;51.844;19.246;2022-07-18T22:49:23;11.73;;;5.78;;
32727;SDS011;55292;51.844;19.246;2022-07-18T22:54:25;11.05;;;5.28;;
32727;SDS011;55292;51.844;19.246;2022-07-18T22:59:28;6.90;;;5.25;;
32727;SDS011;55292;51.844;19.246;2022-07-18T23:04:30;11.70;;;6.25;;
32727;SDS011;55292;51.844;19.246;2022-07-18T23:09:33;9.98;;;5.45;;
32727;SDS011;55292;51.844;19.246;2022-07-18T23:14:36;10.60;;;5.75;;
32727;SDS011;55292;51.844;19.246;2022-07-18T23:19:38;15.35;;;6.35;;
32727;SDS011;55292;51.844;19.246;2022-07-18T23:24:41;9.60;;;5.70;;
32727;SDS011;55292;51.844;19.246;2022-07-18T23:29:43;10.75;;;6.40;;
32727;SDS011;55292;51.844;19.246;2022-07-18T23:34:46;8.75;;;6.65;;
32727;SDS011;55292;51.844;19.246;2022-07-18T23:39:48;11.57;;;6.40;;
32727;SDS011;55292;51.844;19.246;2022-07-18T23:44:52;11.95;;;7.32;;
32727;SDS011;55292;51.844;19.246;2022-07-18T23:49:55;13.88;;;7.53;;
32727;SDS011;55292;51.844;19.246;2022-07-18T23:54:58;13.68;;;6.82;;
